Terminal Aerodrome Forecast
Issued by NWS

Current Version | Previous Version | Text Only | Print | Product List | Glossary On
Versions: 1 2 3 4 5 6 7 8 9 10 11 12 13
000
FTUS41 KCAR 211700
TAFBHB
TAF
KBHB 211720Z 2118/2218 15006KT P6SM SCT250
     FM212300 00000KT P6SM BKN250
     FM221000 06007KT P6SM BKN025
     FM221300 07008KT P6SM BKN035
     FM221500 07009KT P6SM BKN040
      AMD LTD TO CLD VIS AND WIND=

USA.gov is the U.S. government's official web portal to all federal, state and local government web resources and services.